Hlavní strana
METAR-TAF:

METAR-TAF

Letiště :

Saskatoon, Saskatchewan, Kanada

zeměpisná šířka: 52-10N, zeměpisná délka: 106-41W, výška: 501 m

Aktuální stav počasí

Zpráva byla vytvořena před 23 minutami, v 14:00 UTC
Severní vítr 4 kt
Teplota 11°C
Vlhkost vzduchu 76%
Tlak 1027 hPa
Viditelnost: 19.3 km
Polojasno ve výšce 12000 ft

METAR: CYXE 201400Z 01004KT 12SM SCT120 11/07 A3033 RMK AC4 FU SLP282

Čas: 08:23 (14:23 UTC)

Předpověď počasí

Zpráva byla vytvořena před 2 hodinami a 42 minutami, v 11:41 UTC
Předpověď platná od 20 v 12 UTC do 21 v 12 UTC
Severozápadní vítr 6 kt
Viditelnost: 10 km
Skoro jasno ve výšce 10000 ft
Od 20 v 1800 UTC
Severní vítr 8 kt
Viditelnost: 10 km
Polojasno ve výšce 6000 ft
Od 21 v 0300 UTC
vítr z různých směrů 3 kt
Viditelnost: 10 km
Jasno

TAF: CYXE 201141Z 2012/2112 32006KT P6SM FEW100 FM201800 36008KT P6SM SCT060 FM210300 VRB03KT P6SM SKC RMK NXT FCST BY 201800Z

Stav a předpovědi počasí z více než 4 000 letišť (zprávy METAR a TAF).

Červené a žluté tečky na mapě představují dostupné meteorologické stanice.

Když kurzor umístíte na tečku, zobrazí se název stanice.

Pak kliknutím zobrazíte stav a předpověď počasí.

Chcete-li změnit mapu, kliknutím na zelené tlačítko se znaménkem +mapu přiblížíte, kliknutím na zelené tlačítko se znaménkem – mapu oddálíte a kliknutím na zelené šipky přejdete na sousední mapy.


METAR-TAF: